McHenry, IL (60051)

11:04 AM CST en Febrero 11, 2016 (GMT -0600)
Pheasant Valley | | Change Station
CLOSE
Current Station
Estación meteorológica personal
Location: McHenry, IL
Altura: 768 ft
Estaciones meteorológicas cercanas

Alt 768 ft 42.35 °N, 88.30 °W | Updated 2 seconds ago

Despejado
Despejado
14.5 ° F
Sensación térmica 14 ° F
N
0.0
Viento Variable Viento desde NO
Gusts 0.0 mph

Hoy
Alta -- | Baja -- ° F
--% Posibilidad de precipitaciones
Ayer
Alta -- | Baja -- ° F
Precip. -- pul
Presión 30.38 pul
Visibilidad 10.0 Millas
Nubes Despejado
Vientos helados 14 ° F
Punto de rocío -5 ° F
Humedad 40%
Precipitaciones 0.00 pul
Espesor de la nieve No disponible.
6:55 AM 5:19 PM
Creciente, 13% visible
METAR KUGN 111655Z 36006KT 10SM CLR M09/M17 A3030 RMK AO2 SLP287 T10941172
Presión 30.38 pul
Visibilidad 10.0 Millas
Nubes Despejado
Vientos helados 14 ° F
Punto de rocío -5 ° F
Humedad 40%
Precipitaciones 0.00 pul
Espesor de la nieve No disponible.
6:55 AM 5:19 PM
Creciente, 13% visible
METAR KUGN 111655Z 36006KT 10SM CLR M09/M17 A3030 RMK AO2 SLP287 T10941172

10-Day Weather Forecast

Almanac

Astronomía

Feb. 11, 2016 Salida Puesta
Hora real
Crepúsculo civil
Crepúsculo náutico
Crepúsculo astronómico
Luna
Horas de luz
Horas de luz
Tomorrow will be .
, % of the Moon is Illuminated

Extremos de hoy

Máximos del estado Bajos del estado

Community

WunderPhotos

Upload Photos

1,892,102 ¡fotos cargadas!

WunderBlog® & News

Nearby

Calidad del aire

  Calidad del aire Índice AQ Contaminante
Not available.

Grosos de nieve

Estación Profundido Altura

Actividad de terremotos

Ciudad Distance Mag. Tiempo y dato
Magnitud mínima muestra es 2,5.

Temperaturas de aguas costeras

Lugar Temperatura

Stations

Estaciones meteorológicas cercanas

Ubicación de la estación Temp. Vientos helados Punto de rocío Humedad Viento Precip. Alt Actualizado Tipo
                   

Watches & Warnings

There are currently no watches in effect.